Time;durP1;ratioP1;P1;durP2;ratioP2;P2;SDS_P1;SDS_P2;PMS_P1;PMS_P2;Temp;Humidity;BMP_temperature;BMP_pressure;BME280_temperature;BME280_humidity;BME280_pressure;Samples;Min_cycle;Max_cycle;Signal;HPM_P1;HPM_P2
2023/05/01 00:01:22;;;;;;;10.80;7.00;;;6.90;99.90;;;;;;5219185;28;20215;-46
2023/05/01 00:03:53;;;;;;;12.17;7.10;;;6.90;99.90;;;;;;5204510;28;20207;-45
2023/05/01 00:06:24;;;;;;;13.50;6.97;;;6.90;99.90;;;;;;5205341;28;20186;-45
2023/05/01 00:08:54;;;;;;;11.10;5.90;;;6.80;99.90;;;;;;5207437;28;20207;-45
2023/05/01 00:11:25;;;;;;;10.67;5.83;;;6.80;99.90;;;;;;5203073;28;20643;-44
2023/05/01 00:13:56;;;;;;;9.37;6.13;;;6.70;99.90;;;;;;5204243;28;20219;-45
2023/05/01 00:16:26;;;;;;;9.80;6.30;;;6.70;99.90;;;;;;5206294;28;20180;-44
2023/05/01 00:18:57;;;;;;;11.20;6.53;;;6.80;99.90;;;;;;5204529;28;20184;-45
2023/05/01 00:21:27;;;;;;;7.10;4.70;;;6.80;99.90;;;;;;5213095;28;20316;-44
2023/05/01 00:23:58;;;;;;;17.73;6.07;;;6.70;99.90;;;;;;5204352;28;20204;-44
2023/05/01 00:26:30;;;;;;;7.00;5.57;;;6.70;99.90;;;;;;5205560;28;20195;-44
2023/05/01 00:29:01;;;;;;;10.50;5.40;;;6.70;99.90;;;;;;5221315;28;20246;-46
2023/05/01 00:31:31;;;;;;;14.70;5.80;;;6.70;99.90;;;;;;5208037;28;20477;-47
2023/05/01 00:34:03;;;;;;;8.20;6.47;;;6.70;99.90;;;;;;5208248;28;20207;-46
2023/05/01 00:36:34;;;;;;;6.43;5.47;;;6.70;99.90;;;;;;5223430;28;20654;-44
2023/05/01 00:39:06;;;;;;;8.67;5.20;;;6.60;99.90;;;;;;5206941;28;20430;-45
2023/05/01 00:41:37;;;;;;;16.87;5.10;;;6.60;99.90;;;;;;5206200;28;20235;-44
2023/05/01 00:44:08;;;;;;;5.83;4.97;;;6.60;99.90;;;;;;5206462;28;20457;-44
2023/05/01 00:46:38;;;;;;;8.57;5.33;;;6.60;99.90;;;;;;5204250;28;20541;-46
2023/05/01 00:49:09;;;;;;;9.17;5.10;;;6.60;99.90;;;;;;5201867;28;20202;-46
2023/05/01 00:51:40;;;;;;;7.17;4.93;;;6.60;99.90;;;;;;5217960;28;20824;-46
2023/05/01 00:54:11;;;;;;;9.00;6.00;;;6.60;99.90;;;;;;5220991;28;20219;-46
2023/05/01 00:56:42;;;;;;;5.03;4.63;;;6.60;99.90;;;;;;5206701;28;20484;-45
2023/05/01 00:59:13;;;;;;;9.53;5.40;;;6.60;99.90;;;;;;5204153;28;20182;-44
2023/05/01 01:01:44;;;;;;;7.87;5.67;;;6.50;99.90;;;;;;5208037;28;20604;-45
2023/05/01 01:04:14;;;;;;;9.63;4.73;;;6.50;99.90;;;;;;5209217;28;20533;-45
2023/05/01 01:06:52;;;;;;;12.93;7.03;;;6.50;99.90;;;;;;5224204;28;20199;-44
2023/05/01 01:10:00;;;;;;;7.17;4.43;;;6.50;99.90;;;;;;5205380;28;20744;-44
2023/05/01 01:12:56;;;;;;;9.33;4.73;;;6.60;99.90;;;;;;5208680;28;20819;-44
2023/05/01 01:15:46;;;;;;;7.97;5.57;;;6.60;99.90;;;;;;5209929;28;20464;-45
2023/05/01 01:18:33;;;;;;;8.33;4.17;;;6.60;99.90;;;;;;5230541;28;20506;-45
2023/05/01 01:21:12;;;;;;;10.47;4.97;;;6.60;99.90;;;;;;5210856;28;20433;-44
2023/05/01 01:23:58;;;;;;;6.60;4.97;;;6.60;99.90;;;;;;5210066;28;20442;-44
2023/05/01 01:26:37;;;;;;;14.40;5.40;;;6.60;99.90;;;;;;5214399;28;21036;-44
2023/05/01 01:29:24;;;;;;;7.93;4.63;;;6.50;99.90;;;;;;5212569;28;20471;-44
2023/05/01 01:32:49;;;;;;;9.83;4.93;;;6.50;99.90;;;;;;5207615;28;20452;-45
2023/05/01 01:35:24;;;;;;;8.67;4.80;;;6.50;99.90;;;;;;5210871;28;20480;-44
2023/05/01 01:38:05;;;;;;;5.03;4.63;;;6.40;99.90;;;;;;5209994;28;20445;-44
2023/05/01 01:40:51;;;;;;;10.07;4.90;;;6.40;99.90;;;;;;5209858;28;20452;-44
2023/05/01 01:43:25;;;;;;;8.20;4.40;;;6.40;99.90;;;;;;5204663;28;20961;-44
2023/05/01 01:46:02;;;;;;;7.67;4.53;;;6.40;99.90;;;;;;5210200;28;20473;-47
2023/05/01 01:48:37;;;;;;;10.60;5.23;;;6.30;99.90;;;;;;5206178;28;20499;-47
2023/05/01 01:51:12;;;;;;;9.57;4.37;;;6.30;99.90;;;;;;5208880;28;20439;-44
2023/05/01 01:53:47;;;;;;;6.83;3.90;;;6.30;99.90;;;;;;5226014;28;20510;-44
2023/05/01 01:56:18;;;;;;;9.80;5.33;;;6.30;99.90;;;;;;5205833;28;20433;-45
2023/05/01 01:58:51;;;;;;;6.73;5.00;;;6.30;99.90;;;;;;5210345;28;20456;-45
2023/05/01 02:01:23;;;;;;;7.50;5.30;;;6.20;99.90;;;;;;5211338;28;20794;-45
2023/05/01 02:03:54;;;;;;;9.93;5.90;;;6.30;99.90;;;;;;5222927;28;22209;-44
2023/05/01 02:06:26;;;;;;;18.27;7.40;;;6.30;99.90;;;;;;5204436;28;20910;-45
2023/05/01 02:08:59;;;;;;;9.20;5.90;;;6.30;99.90;;;;;;5206551;28;20483;-45
2023/05/01 02:11:31;;;;;;;18.63;7.10;;;6.30;99.90;;;;;;5204931;28;20437;-45
2023/05/01 02:14:03;;;;;;;11.60;6.10;;;6.20;99.90;;;;;;5205416;28;20823;-44
2023/05/01 02:16:35;;;;;;;13.67;7.00;;;6.20;99.90;;;;;;5207193;28;20492;-45
2023/05/01 02:19:06;;;;;;;8.90;5.17;;;6.20;99.90;;;;;;5222616;28;20940;-44
2023/05/01 02:21:38;;;;;;;7.00;5.00;;;6.10;99.90;;;;;;5207257;28;20479;-45
2023/05/01 02:24:11;;;;;;;13.53;6.87;;;6.10;99.90;;;;;;5204989;28;20924;-45
2023/05/01 02:26:48;;;;;;;7.17;4.80;;;6.10;99.90;;;;;;5206613;28;20448;-45
2023/05/01 02:29:19;;;;;;;6.77;4.77;;;6.10;99.90;;;;;;5203582;28;20464;-45
2023/05/01 02:31:49;;;;;;;8.67;4.70;;;6.10;99.90;;;;;;5222516;28;20551;-45
2023/05/01 02:34:21;;;;;;;10.30;5.27;;;6.20;99.90;;;;;;5190857;28;20233;-45
2023/05/01 02:36:51;;;;;;;6.83;4.77;;;6.20;99.90;;;;;;5203495;28;20190;-46
2023/05/01 02:39:22;;;;;;;6.03;4.20;;;6.30;99.90;;;;;;5207572;28;20871;-45
2023/05/01 02:41:55;;;;;;;11.13;5.07;;;6.20;99.90;;;;;;5202523;28;20270;-46
2023/05/01 02:44:27;;;;;;;4.87;4.10;;;6.20;99.90;;;;;;5203811;28;20292;-45
2023/05/01 02:46:59;;;;;;;4.67;4.20;;;6.20;99.90;;;;;;5204843;28;20434;-45
2023/05/01 02:49:31;;;;;;;6.93;4.50;;;6.20;99.90;;;;;;5204581;28;20493;-45
2023/05/01 02:52:03;;;;;;;5.90;4.10;;;6.20;99.90;;;;;;5223349;28;20488;-44
2023/05/01 02:54:34;;;;;;;6.33;4.13;;;6.30;99.90;;;;;;5207167;28;20452;-45
2023/05/01 02:57:05;;;;;;;9.53;4.37;;;6.30;99.90;;;;;;5220487;28;20445;-45
2023/05/01 02:59:36;;;;;;;6.30;4.27;;;6.30;99.90;;;;;;5201539;28;20453;-46
2023/05/01 03:02:06;;;;;;;7.13;4.90;;;6.30;99.90;;;;;;5202245;28;20264;-45
2023/05/01 03:04:37;;;;;;;6.23;4.10;;;6.20;99.90;;;;;;5206354;28;20234;-45
2023/05/01 03:07:08;;;;;;;14.90;4.60;;;6.20;99.90;;;;;;5205561;28;20192;-45
2023/05/01 03:09:39;;;;;;;16.87;4.37;;;6.20;99.90;;;;;;5205935;28;20257;-45
2023/05/01 03:12:09;;;;;;;4.87;4.20;;;6.10;99.90;;;;;;5201803;28;20243;-45
2023/05/01 03:14:40;;;;;;;4.03;3.40;;;6.10;99.90;;;;;;5202805;28;21005;-46
2023/05/01 03:17:12;;;;;;;7.43;4.40;;;6.10;99.90;;;;;;5219652;28;20231;-45
2023/05/01 03:19:42;;;;;;;6.37;4.13;;;6.10;99.90;;;;;;5201820;28;20273;-45
2023/05/01 03:22:13;;;;;;;7.27;4.40;;;6.10;99.90;;;;;;5220135;28;20627;-45
2023/05/01 03:24:43;;;;;;;5.10;4.17;;;6.10;99.90;;;;;;5204886;28;20241;-46
2023/05/01 03:27:15;;;;;;;14.50;4.13;;;6.00;99.90;;;;;;5207067;28;20194;-45
2023/05/01 03:29:46;;;;;;;14.20;4.30;;;6.00;99.90;;;;;;5205900;28;20182;-45
2023/05/01 03:32:17;;;;;;;9.13;4.17;;;6.00;99.90;;;;;;5206811;28;20440;-44
2023/05/01 03:34:47;;;;;;;4.30;3.70;;;6.00;99.90;;;;;;5204819;28;20198;-45
2023/05/01 03:37:18;;;;;;;7.80;4.10;;;6.00;99.90;;;;;;5204775;28;20232;-45
2023/05/01 03:39:50;;;;;;;6.90;4.43;;;6.00;99.90;;;;;;5205924;28;20200;-45
2023/05/01 03:42:20;;;;;;;17.17;4.87;;;6.00;99.90;;;;;;5202592;28;20181;-44
2023/05/01 03:44:51;;;;;;;10.97;4.10;;;6.00;99.90;;;;;;5202159;28;20450;-44
2023/05/01 03:47:22;;;;;;;9.20;4.17;;;6.00;99.90;;;;;;5205268;28;20186;-45
2023/05/01 03:49:52;;;;;;;13.57;4.90;;;6.00;99.90;;;;;;5203155;28;20172;-45
2023/05/01 03:52:23;;;;;;;4.93;3.83;;;6.00;99.90;;;;;;5220708;28;20174;-45
2023/05/01 03:54:54;;;;;;;11.33;4.53;;;6.00;99.90;;;;;;5216380;28;20735;-45
2023/05/01 03:57:25;;;;;;;12.33;5.13;;;6.10;99.90;;;;;;5203514;28;20187;-45
2023/05/01 03:59:56;;;;;;;7.30;4.57;;;6.10;99.90;;;;;;5210688;28;20176;-45
2023/05/01 04:02:27;;;;;;;7.47;4.60;;;6.10;99.90;;;;;;5207686;28;20436;-45
2023/05/01 04:04:57;;;;;;;5.73;4.90;;;6.10;99.90;;;;;;5207110;28;20228;-44
2023/05/01 04:07:28;;;;;;;6.10;4.83;;;6.20;99.90;;;;;;5204864;28;20187;-45
2023/05/01 04:09:58;;;;;;;5.10;4.13;;;6.20;99.90;;;;;;5223231;28;20183;-44
2023/05/01 04:12:29;;;;;;;8.30;4.30;;;6.30;99.90;;;;;;5209423;28;20670;-45
2023/05/01 04:15:00;;;;;;;4.07;3.57;;;6.30;99.90;;;;;;5206711;28;20232;-43
2023/05/01 04:17:31;;;;;;;8.07;4.90;;;6.40;99.90;;;;;;5223061;28;20187;-44
2023/05/01 04:20:04;;;;;;;4.77;3.90;;;6.40;99.90;;;;;;5221555;28;20187;-45
2023/05/01 04:22:35;;;;;;;10.60;4.23;;;6.50;99.90;;;;;;5189462;28;20220;-44
2023/05/01 04:25:07;;;;;;;10.40;4.33;;;6.50;99.90;;;;;;5208087;28;20449;-46
2023/05/01 04:27:38;;;;;;;9.10;3.87;;;6.60;99.90;;;;;;5213987;28;20388;-44
2023/05/01 04:30:09;;;;;;;12.63;4.10;;;6.70;99.90;;;;;;5211023;28;20433;-44
2023/05/01 04:32:40;;;;;;;14.30;4.37;;;6.90;99.90;;;;;;5211472;28;20655;-44
2023/05/01 04:35:11;;;;;;;14.30;4.00;;;7.00;99.90;;;;;;5208428;28;20458;-44
2023/05/01 04:37:41;;;;;;;8.60;3.83;;;7.10;99.90;;;;;;5206808;28;20614;-44
2023/05/01 04:40:12;;;;;;;5.23;4.50;;;7.40;99.90;;;;;;5210908;28;20445;-44
2023/05/01 04:42:43;;;;;;;13.33;4.47;;;7.70;99.90;;;;;;5193063;28;20186;-44
2023/05/01 04:45:14;;;;;;;4.93;4.27;;;7.80;99.90;;;;;;5206813;28;20290;-46
2023/05/01 04:47:45;;;;;;;6.87;3.60;;;7.80;99.90;;;;;;5211949;28;20235;-45
2023/05/01 04:50:15;;;;;;;7.67;3.47;;;7.90;99.90;;;;;;5209507;28;20964;-45
2023/05/01 04:52:46;;;;;;;9.33;3.70;;;8.10;99.40;;;;;;5205228;28;20275;-46
2023/05/01 04:55:17;;;;;;;5.50;3.67;;;8.40;98.50;;;;;;5223952;28;20316;-45
2023/05/01 04:57:48;;;;;;;7.43;4.33;;;8.60;97.30;;;;;;5209189;28;20187;-45
2023/05/01 05:00:19;;;;;;;10.30;4.43;;;8.80;95.90;;;;;;5207130;28;20195;-43
2023/05/01 05:02:50;;;;;;;3.50;3.20;;;8.80;95.40;;;;;;5205851;28;20182;-44
2023/05/01 05:05:21;;;;;;;9.53;3.73;;;9.00;94.10;;;;;;5206576;28;20454;-44
2023/05/01 05:07:51;;;;;;;10.00;4.80;;;9.30;92.80;;;;;;5222662;28;20302;-46
2023/05/01 05:10:22;;;;;;;9.27;4.33;;;9.80;91.10;;;;;;5222685;28;20202;-44
2023/05/01 05:12:52;;;;;;;5.07;4.27;;;10.50;83.60;;;;;;5205469;28;20182;-44
2023/05/01 05:15:23;;;;;;;6.60;3.77;;;10.90;78.70;;;;;;5206763;28;20207;-46
2023/05/01 05:17:53;;;;;;;5.40;4.20;;;12.00;71.20;;;;;;5223250;28;20183;-45
2023/05/01 05:20:24;;;;;;;7.57;3.60;;;13.60;60.50;;;;;;5209936;28;20187;-45
2023/05/01 05:22:55;;;;;;;12.47;4.73;;;14.90;53.10;;;;;;5219054;28;20185;-45
2023/05/01 05:25:26;;;;;;;3.57;3.27;;;15.90;48.60;;;;;;5191827;28;20468;-44
2023/05/01 05:27:58;;;;;;;5.33;4.40;;;16.60;45.40;;;;;;5226386;28;20290;-44
2023/05/01 05:30:28;;;;;;;6.93;4.30;;;16.80;43.10;;;;;;5220660;28;20179;-44
2023/05/01 05:32:59;;;;;;;7.00;3.70;;;17.20;41.90;;;;;;5222717;28;20799;-46
2023/05/01 05:35:30;;;;;;;6.70;3.60;;;17.00;41.60;;;;;;5209591;28;20194;-44
2023/05/01 05:38:00;;;;;;;8.73;4.77;;;17.10;41.50;;;;;;5208610;28;20513;-46
2023/05/01 05:40:31;;;;;;;10.33;4.50;;;17.10;40.80;;;;;;5215006;28;20183;-45
2023/05/01 05:43:02;;;;;;;7.03;4.43;;;17.20;40.10;;;;;;5226245;28;20610;-44
2023/05/01 05:45:33;;;;;;;5.87;4.10;;;16.90;39.80;;;;;;5208719;28;20211;-45
2023/05/01 05:48:04;;;;;;;6.77;3.63;;;16.90;40.50;;;;;;5221555;28;20204;-45
2023/05/01 05:50:35;;;;;;;10.10;4.37;;;17.70;40.00;;;;;;5222052;28;20962;-44
2023/05/01 05:53:05;;;;;;;7.10;3.83;;;18.90;37.60;;;;;;5223764;28;20473;-44
2023/05/01 05:55:36;;;;;;;5.40;3.20;;;18.90;36.20;;;;;;5200923;28;20246;-45
2023/05/01 05:58:07;;;;;;;5.60;3.43;;;18.90;35.90;;;;;;5208406;28;20188;-45
2023/05/01 06:00:37;;;;;;;8.40;4.10;;;18.80;36.20;;;;;;5223694;28;20595;-44
2023/05/01 06:03:08;;;;;;;4.60;3.30;;;19.10;35.60;;;;;;5206988;28;20180;-44
2023/05/01 06:05:39;;;;;;;3.50;3.20;;;19.50;35.00;;;;;;5207573;28;20266;-45
2023/05/01 06:08:10;;;;;;;6.50;3.87;;;19.60;34.80;;;;;;5207195;28;20235;-43
2023/05/01 06:10:44;;;;;;;3.27;2.97;;;19.70;33.90;;;;;;5207279;28;20582;-45
2023/05/01 06:13:15;;;;;;;10.50;3.97;;;20.00;34.10;;;;;;5208973;28;20421;-46
2023/05/01 06:15:46;;;;;;;5.50;3.60;;;20.50;33.20;;;;;;5215305;28;20469;-45
2023/05/01 06:18:16;;;;;;;6.20;3.47;;;20.70;32.50;;;;;;5223478;28;20179;-45
2023/05/01 06:20:47;;;;;;;6.20;3.70;;;21.40;32.40;;;;;;5220591;28;20176;-45
2023/05/01 06:23:18;;;;;;;5.03;3.77;;;21.20;31.20;;;;;;5206568;28;20176;-45
2023/05/01 06:25:48;;;;;;;3.87;3.17;;;21.30;31.60;;;;;;5221421;28;20199;-45
2023/05/01 06:28:19;;;;;;;14.50;3.87;;;21.00;31.30;;;;;;5221820;28;20559;-44
2023/05/01 06:30:50;;;;;;;5.33;4.00;;;21.20;31.50;;;;;;5206110;28;20663;-45
2023/05/01 06:33:21;;;;;;;5.70;3.40;;;21.40;30.80;;;;;;5217226;28;20431;-45
2023/05/01 06:35:53;;;;;;;5.83;3.40;;;20.70;31.60;;;;;;5202002;28;20332;-45
2023/05/01 06:38:24;;;;;;;6.73;3.47;;;20.60;31.90;;;;;;5219756;28;20187;-46
2023/05/01 06:40:55;;;;;;;4.67;3.67;;;20.50;31.20;;;;;;5226950;28;20422;-44
2023/05/01 06:43:29;;;;;;;8.67;3.60;;;20.20;32.40;;;;;;5206926;28;20445;-45
2023/05/01 06:46:00;;;;;;;7.50;3.70;;;20.90;32.00;;;;;;5203651;28;20358;-44
2023/05/01 06:48:30;;;;;;;5.43;3.73;;;21.50;31.10;;;;;;5202630;28;20577;-45
2023/05/01 06:51:01;;;;;;;6.40;3.40;;;21.50;30.70;;;;;;5205119;28;20259;-44
2023/05/01 06:53:32;;;;;;;8.50;3.63;;;21.90;30.30;;;;;;5203301;28;20180;-45
2023/05/01 06:56:02;;;;;;;5.20;3.73;;;21.60;30.20;;;;;;5218729;28;20636;-46
2023/05/01 06:58:33;;;;;;;6.97;3.30;;;21.90;30.40;;;;;;5204543;28;20206;-46
2023/05/01 07:01:04;;;;;;;4.73;3.30;;;22.30;29.60;;;;;;5206112;28;20187;-46
2023/05/01 07:03:34;;;;;;;7.70;4.20;;;23.30;29.40;;;;;;5220111;28;20644;-46
2023/05/01 07:06:05;;;;;;;10.20;3.23;;;24.50;28.50;;;;;;5219648;28;20262;-45
2023/05/01 07:08:35;;;;;;;4.27;3.37;;;24.80;27.70;;;;;;5205904;28;20207;-46
2023/05/01 07:11:06;;;;;;;4.67;2.90;;;25.20;27.90;;;;;;5204991;28;20187;-45
2023/05/01 07:13:37;;;;;;;6.77;3.70;;;26.00;27.20;;;;;;5203258;28;20190;-46
2023/05/01 07:16:07;;;;;;;8.70;3.80;;;26.30;26.50;;;;;;5204558;28;20191;-46
2023/05/01 07:18:38;;;;;;;16.43;7.60;;;26.80;26.30;;;;;;5220034;28;20180;-46
2023/05/01 07:21:10;;;;;;;4.60;3.20;;;27.70;25.70;;;;;;5200932;28;20217;-45
2023/05/01 07:23:41;;;;;;;3.43;3.20;;;26.60;25.40;;;;;;5204079;28;20180;-47
2023/05/01 07:26:12;;;;;;;3.83;3.40;;;25.20;26.40;;;;;;5202789;28;20434;-45
2023/05/01 07:28:42;;;;;;;5.97;3.57;;;24.90;27.20;;;;;;5219256;28;20516;-47
2023/05/01 07:31:13;;;;;;;7.73;3.63;;;24.90;27.00;;;;;;5202659;28;20184;-45
2023/05/01 07:33:44;;;;;;;3.00;2.70;;;24.80;27.30;;;;;;5203235;28;20168;-44
2023/05/01 07:36:17;;;;;;;9.20;2.97;;;23.60;27.30;;;;;;5217532;28;20191;-45
2023/05/01 07:38:48;;;;;;;4.83;3.03;;;22.20;29.10;;;;;;5209206;28;20184;-46
2023/05/01 07:41:20;;;;;;;7.80;3.83;;;22.10;29.50;;;;;;5207600;28;20449;-46
2023/05/01 07:43:51;;;;;;;3.77;2.77;;;21.50;29.80;;;;;;5203595;28;20430;-45
2023/05/01 07:46:21;;;;;;;4.27;2.83;;;22.10;29.90;;;;;;5203653;28;20414;-45
2023/05/01 07:48:52;;;;;;;7.80;3.10;;;22.50;29.20;;;;;;5203501;28;20656;-45
2023/05/01 07:51:23;;;;;;;3.13;2.90;;;22.30;29.30;;;;;;5202071;28;20539;-46
2023/05/01 07:53:53;;;;;;;4.00;3.00;;;21.20;30.00;;;;;;5204732;28;20180;-45
2023/05/01 07:56:24;;;;;;;7.57;3.07;;;20.40;30.80;;;;;;5212958;28;20270;-47
2023/05/01 07:58:55;;;;;;;4.60;2.83;;;19.80;31.70;;;;;;5204137;28;20847;-46
2023/05/01 08:01:25;;;;;;;2.87;2.60;;;19.60;32.90;;;;;;5205932;28;20179;-46
2023/05/01 08:03:56;;;;;;;3.13;2.57;;;19.70;32.00;;;;;;5210363;28;20718;-45
2023/05/01 08:06:27;;;;;;;9.07;3.07;;;20.20;31.50;;;;;;5207009;28;20187;-45
2023/05/01 08:08:57;;;;;;;2.83;2.63;;;20.80;31.00;;;;;;5208279;28;20205;-46
2023/05/01 08:11:28;;;;;;;3.97;3.20;;;21.70;30.90;;;;;;5208673;28;20353;-45
2023/05/01 08:13:59;;;;;;;16.87;4.27;;;22.50;29.40;;;;;;5223267;28;20725;-46
2023/05/01 08:16:30;;;;;;;4.13;3.00;;;22.40;29.20;;;;;;5208727;28;20182;-46
2023/05/01 08:19:01;;;;;;;3.40;2.57;;;22.70;29.30;;;;;;5207099;28;20930;-46
2023/05/01 08:21:31;;;;;;;3.93;3.27;;;23.60;29.00;;;;;;5205765;28;20754;-46
2023/05/01 08:24:02;;;;;;;3.93;2.90;;;24.10;28.30;;;;;;5204739;28;20206;-45
2023/05/01 08:26:33;;;;;;;4.17;2.60;;;25.10;27.60;;;;;;5208199;28;20172;-49
2023/05/01 08:29:03;;;;;;;5.07;2.70;;;24.60;27.30;;;;;;5201791;28;20210;-44
2023/05/01 08:31:36;;;;;;;3.37;2.97;;;24.50;27.70;;;;;;5210391;28;20644;-45
2023/05/01 08:34:07;;;;;;;4.47;3.13;;;25.10;27.70;;;;;;5207065;28;20243;-46
2023/05/01 08:36:38;;;;;;;5.57;2.83;;;25.50;26.90;;;;;;5221295;28;20781;-45
2023/05/01 08:39:08;;;;;;;5.47;2.10;;;23.60;27.50;;;;;;5208321;28;20190;-48
2023/05/01 08:41:39;;;;;;;2.63;2.43;;;22.80;28.60;;;;;;5206472;28;20183;-46
2023/05/01 08:44:11;;;;;;;3.57;2.77;;;21.50;29.50;;;;;;5224217;28;20288;-45
2023/05/01 08:46:56;;;;;;;3.03;2.73;;;20.60;30.50;;;;;;5208523;28;20449;-49
2023/05/01 08:49:28;;;;;;;4.10;2.67;;;19.90;31.30;;;;;;5206463;28;20508;-46
2023/05/01 08:52:01;;;;;;;4.50;2.47;;;19.80;32.10;;;;;;5208785;28;20834;-46
2023/05/01 08:54:33;;;;;;;4.60;2.80;;;20.40;32.10;;;;;;5208483;28;20456;-45
2023/05/01 08:57:08;;;;;;;2.67;2.47;;;20.50;31.10;;;;;;5210262;28;20426;-45
2023/05/01 08:59:40;;;;;;;3.60;1.87;;;19.70;31.80;;;;;;5207958;28;20430;-45
2023/05/01 09:02:10;;;;;;;7.53;2.40;;;18.80;32.70;;;;;;5210199;28;20434;-47
2023/05/01 09:04:41;;;;;;;5.93;2.70;;;18.00;33.20;;;;;;5209049;28;20465;-45
2023/05/01 09:07:12;;;;;;;4.27;2.60;;;17.80;34.20;;;;;;5220649;28;20187;-45
2023/05/01 09:09:42;;;;;;;10.20;2.07;;;17.40;34.20;;;;;;5224749;28;20422;-43
2023/05/01 09:12:24;;;;;;;2.53;2.07;;;16.90;34.40;;;;;;5208631;28;20187;-46
2023/05/01 09:14:56;;;;;;;5.87;3.00;;;16.70;35.10;;;;;;5195243;28;20261;-46
2023/05/01 09:17:29;;;;;;;4.00;2.10;;;16.60;34.70;;;;;;5206506;28;20435;-46
2023/05/01 09:20:01;;;;;;;4.00;2.50;;;16.80;34.80;;;;;;5209779;28;20788;-45
2023/05/01 09:22:33;;;;;;;7.53;2.03;;;16.70;35.30;;;;;;5208164;28;20450;-45
2023/05/01 09:25:05;;;;;;;2.30;2.00;;;16.70;34.80;;;;;;5212027;28;20458;-44
2023/05/01 09:27:37;;;;;;;12.50;3.17;;;16.80;34.80;;;;;;5210154;28;20441;-46
2023/05/01 09:30:08;;;;;;;11.00;2.50;;;16.80;34.50;;;;;;5204732;28;20489;-46
2023/05/01 09:32:38;;;;;;;3.40;2.60;;;16.90;35.10;;;;;;5204616;28;20536;-45
2023/05/01 09:35:14;;;;;;;5.43;2.07;;;16.90;34.50;;;;;;5223453;28;20498;-47
2023/05/01 09:37:48;;;;;;;3.37;2.67;;;16.90;34.70;;;;;;5205136;28;20179;-46
2023/05/01 09:40:26;;;;;;;5.13;2.50;;;17.00;35.20;;;;;;5185734;28;20437;-46
2023/05/01 09:42:57;;;;;;;6.20;2.70;;;17.30;35.20;;;;;;5205753;28;20445;-46
2023/05/01 09:45:27;;;;;;;5.13;2.37;;;17.60;35.40;;;;;;5205874;28;20465;-46
2023/05/01 09:48:12;;;;;;;4.70;2.90;;;17.40;34.10;;;;;;5206997;28;20298;-45
2023/05/01 09:50:42;;;;;;;4.70;3.20;;;17.30;35.20;;;;;;5203452;28;20516;-45
2023/05/01 09:53:13;;;;;;;2.40;2.20;;;17.50;35.00;;;;;;5205158;28;20437;-45
2023/05/01 09:55:59;;;;;;;4.57;2.87;;;17.50;34.30;;;;;;5206904;28;20199;-45
2023/05/01 09:58:30;;;;;;;6.83;2.90;;;17.70;35.10;;;;;;5204782;28;20194;-45
2023/05/01 10:01:01;;;;;;;2.00;1.90;;;17.80;34.70;;;;;;5205064;28;20533;-46
2023/05/01 10:03:33;;;;;;;5.03;2.63;;;17.80;34.80;;;;;;5205071;28;20282;-46
2023/05/01 10:06:04;;;;;;;3.97;2.80;;;17.70;35.20;;;;;;5221200;28;20243;-44
2023/05/01 10:08:48;;;;;;;5.33;2.40;;;17.70;35.40;;;;;;5205905;28;20493;-45
2023/05/01 10:11:19;;;;;;;4.57;2.67;;;17.60;35.50;;;;;;5198700;28;20180;-47
2023/05/01 10:14:16;;;;;;;3.97;2.63;;;17.60;35.90;;;;;;5202256;28;20433;-48
2023/05/01 10:16:48;;;;;;;10.07;3.20;;;17.50;35.90;;;;;;5203159;28;20648;-45
2023/05/01 10:19:19;;;;;;;6.87;4.10;;;17.30;36.30;;;;;;5218145;28;20469;-46
2023/05/01 10:21:51;;;;;;;9.23;4.20;;;17.50;36.40;;;;;;5203491;28;21013;-46
2023/05/01 10:24:22;;;;;;;11.50;5.87;;;17.70;36.00;;;;;;5219101;28;20541;-46
2023/05/01 10:26:53;;;;;;;10.00;3.20;;;17.80;36.40;;;;;;5202499;28;20919;-46
2023/05/01 10:29:26;;;;;;;12.57;3.10;;;17.90;36.40;;;;;;5219500;28;20676;-46
2023/05/01 10:31:58;;;;;;;6.87;3.17;;;17.90;36.30;;;;;;5203930;28;20520;-46
2023/05/01 10:34:33;;;;;;;8.77;5.57;;;18.00;36.20;;;;;;5211863;28;20461;-46
2023/05/01 10:37:12;;;;;;;4.20;2.43;;;18.10;36.10;;;;;;5220009;28;20429;-46
2023/05/01 10:39:43;;;;;;;9.07;4.80;;;18.00;35.90;;;;;;5196677;28;20426;-45
2023/05/01 10:42:13;;;;;;;4.93;3.07;;;18.10;36.20;;;;;;5201504;28;20708;-47
2023/05/01 10:44:46;;;;;;;6.37;3.53;;;18.20;35.30;;;;;;5198736;28;20196;-47
2023/05/01 10:47:23;;;;;;;5.97;3.40;;;18.40;35.40;;;;;;5201597;28;20187;-46
2023/05/01 10:50:07;;;;;;;6.40;3.10;;;18.50;35.40;;;;;;5185166;28;20471;-47
2023/05/01 10:53:13;;;;;;;8.63;3.00;;;18.60;35.00;;;;;;5186088;28;20422;-46
2023/05/01 10:55:46;;;;;;;7.97;3.90;;;18.40;34.80;;;;;;5205282;28;20457;-47
2023/05/01 10:58:35;;;;;;;3.33;3.00;;;18.40;35.30;;;;;;5211077;28;20454;-47
2023/05/01 11:01:28;;;;;;;3.13;2.83;;;18.10;35.60;;;;;;5190434;28;20438;-46
2023/05/01 11:04:03;;;;;;;3.10;2.70;;;17.80;35.70;;;;;;5198066;28;20465;-46
2023/05/01 11:06:35;;;;;;;6.50;3.33;;;17.70;36.90;;;;;;5215462;28;20434;-46
2023/05/01 11:09:37;;;;;;;5.20;2.93;;;17.80;36.60;;;;;;5200831;28;20498;-46
2023/05/01 11:12:10;;;;;;;10.23;3.37;;;17.50;36.80;;;;;;5200863;28;20818;-45
2023/05/01 11:15:07;;;;;;;4.70;3.03;;;17.60;36.70;;;;;;5199728;28;20472;-45
2023/05/01 11:17:41;;;;;;;7.20;2.60;;;17.50;36.60;;;;;;5197061;28;20540;-46
2023/05/01 11:20:23;;;;;;;4.50;2.40;;;17.40;36.80;;;;;;5195697;28;20433;-45
2023/05/01 11:22:57;;;;;;;4.83;3.13;;;17.50;36.90;;;;;;5198146;28;20925;-46
2023/05/01 11:25:31;;;;;;;6.80;3.03;;;17.50;36.70;;;;;;5202003;28;20961;-45
2023/05/01 11:28:05;;;;;;;2.83;2.63;;;17.60;36.00;;;;;;5197673;28;20842;-45
2023/05/01 11:30:37;;;;;;;4.93;2.60;;;17.70;35.70;;;;;;5196994;28;20434;-45
2023/05/01 11:33:08;;;;;;;7.87;3.67;;;17.90;35.50;;;;;;5196044;28;20890;-46
2023/05/01 11:35:39;;;;;;;5.60;3.20;;;18.30;35.30;;;;;;5193827;28;20453;-45
2023/05/01 11:38:17;;;;;;;5.47;2.63;;;18.60;33.60;;;;;;5199007;28;20276;-45
2023/05/01 11:40:57;;;;;;;2.90;2.60;;;18.90;33.40;;;;;;5215688;28;20292;-46
2023/05/01 11:43:28;;;;;;;4.57;3.33;;;19.40;33.60;;;;;;5214491;28;20438;-46
2023/05/01 11:46:01;;;;;;;2.50;2.30;;;19.50;32.40;;;;;;5194883;28;20566;-45
2023/05/01 11:48:32;;;;;;;3.80;3.17;;;19.70;32.40;;;;;;5179977;28;20469;-46
2023/05/01 11:51:11;;;;;;;7.93;3.23;;;20.00;32.30;;;;;;5201557;28;20431;-46
2023/05/01 11:53:42;;;;;;;4.27;3.60;;;19.90;32.80;;;;;;5198117;28;20176;-46
2023/05/01 11:56:19;;;;;;;6.13;3.77;;;20.30;33.30;;;;;;5194583;28;20434;-45
2023/05/01 11:58:51;;;;;;;5.10;3.20;;;20.50;33.10;;;;;;5195890;28;20175;-46
2023/05/01 12:01:39;;;;;;;5.17;3.47;;;20.80;32.40;;;;;;5195375;28;20452;-46
2023/05/01 12:04:11;;;;;;;4.90;3.00;;;20.70;32.50;;;;;;5216574;28;20538;-46
2023/05/01 12:06:46;;;;;;;5.30;2.77;;;20.50;32.60;;;;;;5203999;28;20438;-47
2023/05/01 12:09:25;;;;;;;7.40;3.60;;;20.00;33.20;;;;;;5198942;28;21060;-46
2023/05/01 12:11:58;;;;;;;13.60;3.33;;;19.50;32.60;;;;;;5207919;28;20438;-46
2023/05/01 12:14:29;;;;;;;3.40;3.10;;;19.00;33.30;;;;;;5200107;28;20549;-46
2023/05/01 12:17:02;;;;;;;3.50;3.20;;;18.90;34.40;;;;;;5199523;28;20792;-46
2023/05/01 12:19:33;;;;;;;4.07;2.93;;;19.00;34.30;;;;;;5197509;28;20442;-47
2023/05/01 12:22:08;;;;;;;3.50;3.30;;;19.20;34.10;;;;;;5203374;28;20533;-46
2023/05/01 12:24:50;;;;;;;3.37;3.20;;;19.40;34.10;;;;;;5197216;28;20457;-46
2023/05/01 12:27:21;;;;;;;6.17;3.20;;;19.50;33.70;;;;;;5211252;28;20946;-47
2023/05/01 12:29:51;;;;;;;3.83;3.40;;;19.70;33.60;;;;;;5211840;28;20557;-47
2023/05/01 12:32:30;;;;;;;3.37;3.13;;;19.90;33.50;;;;;;5188570;28;20460;-46
2023/05/01 12:35:12;;;;;;;5.20;3.07;;;19.70;32.90;;;;;;5198043;28;20199;-46
2023/05/01 12:37:43;;;;;;;11.57;3.53;;;19.40;32.40;;;;;;5197048;28;20426;-46
2023/05/01 12:40:13;;;;;;;3.27;3.07;;;19.20;33.30;;;;;;5199899;28;20929;-46
2023/05/01 12:42:54;;;;;;;3.50;3.20;;;19.20;33.50;;;;;;5196072;28;20215;-47
2023/05/01 12:45:25;;;;;;;5.87;4.20;;;19.20;34.40;;;;;;5191200;28;20200;-47
2023/05/01 12:47:55;;;;;;;5.13;4.00;;;19.40;34.20;;;;;;5197061;28;20466;-45
2023/05/01 12:50:26;;;;;;;8.00;2.93;;;19.30;33.70;;;;;;5197948;28;20664;-47
2023/05/01 12:53:01;;;;;;;6.27;3.50;;;19.50;33.90;;;;;;5202731;28;20211;-45
2023/05/01 12:55:45;;;;;;;5.30;3.00;;;19.90;33.80;;;;;;5217105;28;20277;-46
2023/05/01 12:58:16;;;;;;;10.30;4.00;;;20.10;33.60;;;;;;5210862;28;20457;-46
2023/05/01 13:00:51;;;;;;;4.27;3.57;;;20.30;32.50;;;;;;5194586;28;20438;-47
2023/05/01 13:03:27;;;;;;;7.43;3.40;;;20.10;32.50;;;;;;5200351;28;20557;-46
2023/05/01 13:05:59;;;;;;;3.73;3.40;;;20.10;33.20;;;;;;5201092;28;21079;-46
2023/05/01 13:08:32;;;;;;;9.37;2.60;;;20.20;33.40;;;;;;5203884;28;20461;-46
2023/05/01 13:11:14;;;;;;;9.20;2.80;;;20.10;32.90;;;;;;5202555;28;20512;-46
2023/05/01 13:13:45;;;;;;;5.50;3.83;;;19.70;33.80;;;;;;5203462;28;20925;-46
2023/05/01 13:16:16;;;;;;;9.90;3.90;;;19.50;34.10;;;;;;5203978;28;20456;-48
2023/05/01 13:18:51;;;;;;;4.03;3.10;;;19.40;34.40;;;;;;5220104;28;20442;-45